sensor_id;sensor_type;location;lat;lon;timestamp;pressure;altitude;pressure_sealevel;temperature;humidity
85511;BME280;75921;51.616;11.880;2024-02-15T00:02:15;100187.94;;;7.65;98.15
85511;BME280;75921;51.616;11.880;2024-02-15T00:04:41;100170.09;;;7.64;98.06
85511;BME280;75921;51.616;11.880;2024-02-15T00:07:06;100163.16;;;7.53;97.16
85511;BME280;75921;51.616;11.880;2024-02-15T00:09:32;100172.44;;;7.59;96.78
85511;BME280;75921;51.616;11.880;2024-02-15T00:11:57;100164.00;;;7.54;96.95
85511;BME280;75921;51.616;11.880;2024-02-15T00:14:24;100170.63;;;7.67;97.73
85511;BME280;75921;51.616;11.880;2024-02-15T00:16:50;100169.44;;;7.62;97.97
85511;BME280;75921;51.616;11.880;2024-02-15T00:19:15;100171.47;;;7.68;97.91
85511;BME280;75921;51.616;11.880;2024-02-15T00:21:45;100160.56;;;7.69;97.81
85511;BME280;75921;51.616;11.880;2024-02-15T00:24:10;100157.72;;;7.71;97.54
85511;BME280;75921;51.616;11.880;2024-02-15T00:26:36;100166.16;;;7.76;97.93
85511;BME280;75921;51.616;11.880;2024-02-15T00:29:02;100172.88;;;7.80;97.87
85511;BME280;75921;51.616;11.880;2024-02-15T00:31:27;100157.25;;;7.75;97.93
85511;BME280;75921;51.616;11.880;2024-02-15T00:33:52;100170.41;;;7.87;98.22
85511;BME280;75921;51.616;11.880;2024-02-15T00:36:19;100160.22;;;7.64;97.23
85511;BME280;75921;51.616;11.880;2024-02-15T00:38:44;100177.28;;;7.81;98.22
85511;BME280;75921;51.616;11.880;2024-02-15T00:41:10;100170.34;;;7.78;97.96
85511;BME280;75921;51.616;11.880;2024-02-15T00:43:35;100173.88;;;7.79;98.12
85511;BME280;75921;51.616;11.880;2024-02-15T00:46:00;100167.16;;;7.75;98.31
85511;BME280;75921;51.616;11.880;2024-02-15T00:48:26;100160.22;;;7.64;97.80
85511;BME280;75921;51.616;11.880;2024-02-15T00:50:54;100156.03;;;7.70;97.99
85511;BME280;75921;51.616;11.880;2024-02-15T00:53:19;100168.50;;;7.79;98.55
85511;BME280;75921;51.616;11.880;2024-02-15T00:55:45;100170.69;;;7.75;97.53
85511;BME280;75921;51.616;11.880;2024-02-15T00:58:10;100158.94;;;7.76;98.18
85511;BME280;75921;51.616;11.880;2024-02-15T01:00:36;100175.56;;;7.80;97.98
85511;BME280;75921;51.616;11.880;2024-02-15T01:03:01;100175.44;;;7.81;98.07
85511;BME280;75921;51.616;11.880;2024-02-15T01:05:26;100178.25;;;7.80;98.00
85511;BME280;75921;51.616;11.880;2024-02-15T01:07:51;100121.34;;;7.59;98.16
85511;BME280;75921;51.616;11.880;2024-02-15T01:10:17;100164.19;;;7.86;97.73
85511;BME280;75921;51.616;11.880;2024-02-15T01:12:42;100150.53;;;7.79;97.89
85511;BME280;75921;51.616;11.880;2024-02-15T01:15:09;100164.84;;;7.88;98.18
85511;BME280;75921;51.616;11.880;2024-02-15T01:17:34;100171.94;;;7.97;98.28
85511;BME280;75921;51.616;11.880;2024-02-15T01:19:59;100175.94;;;7.85;97.42
85511;BME280;75921;51.616;11.880;2024-02-15T01:22:25;100172.91;;;7.88;98.39
85511;BME280;75921;51.616;11.880;2024-02-15T01:24:52;100175.66;;;7.96;98.34
85511;BME280;75921;51.616;11.880;2024-02-15T01:27:17;100162.28;;;7.78;97.85
85511;BME280;75921;51.616;11.880;2024-02-15T01:29:42;100175.13;;;7.93;98.25
85511;BME280;75921;51.616;11.880;2024-02-15T01:32:08;100170.91;;;7.90;97.58
85511;BME280;75921;51.616;11.880;2024-02-15T01:34:33;100175.97;;;7.93;97.91
85511;BME280;75921;51.616;11.880;2024-02-15T01:36:58;100174.63;;;7.97;98.73
85511;BME280;75921;51.616;11.880;2024-02-15T01:39:24;100176.97;;;7.92;97.99
85511;BME280;75921;51.616;11.880;2024-02-15T01:41:49;100175.97;;;7.93;98.36
85511;BME280;75921;51.616;11.880;2024-02-15T01:44:21;100176.00;;;8.01;98.01
85511;BME280;75921;51.616;11.880;2024-02-15T01:46:47;100180.38;;;8.02;97.94
85511;BME280;75921;51.616;11.880;2024-02-15T01:49:13;100179.88;;;8.07;98.12
85511;BME280;75921;51.616;11.880;2024-02-15T01:51:40;100178.38;;;8.04;97.83
85511;BME280;75921;51.616;11.880;2024-02-15T01:54:08;100175.00;;;8.02;97.41
85511;BME280;75921;51.616;11.880;2024-02-15T01:56:34;100170.63;;;8.01;97.05
85511;BME280;75921;51.616;11.880;2024-02-15T01:58:59;100172.66;;;8.07;97.84
85511;BME280;75921;51.616;11.880;2024-02-15T02:01:27;100177.72;;;8.10;98.06
85511;BME280;75921;51.616;11.880;2024-02-15T02:03:53;100165.91;;;8.03;97.47
85511;BME280;75921;51.616;11.880;2024-02-15T02:06:19;100172.84;;;8.14;97.59
85511;BME280;75921;51.616;11.880;2024-02-15T02:08:44;100174.50;;;8.07;97.66
85511;BME280;75921;51.616;11.880;2024-02-15T02:11:09;100168.97;;;8.08;97.53
85511;BME280;75921;51.616;11.880;2024-02-15T02:13:35;100157.50;;;7.98;96.92
85511;BME280;75921;51.616;11.880;2024-02-15T02:16:00;100164.94;;;8.12;98.02
85511;BME280;75921;51.616;11.880;2024-02-15T02:18:25;100158.91;;;8.10;97.94
85511;BME280;75921;51.616;11.880;2024-02-15T02:20:51;100157.56;;;8.14;97.72
85511;BME280;75921;51.616;11.880;2024-02-15T02:23:17;100159.56;;;8.12;97.72
85511;BME280;75921;51.616;11.880;2024-02-15T02:25:47;100154.66;;;8.08;97.66
85511;BME280;75921;51.616;11.880;2024-02-15T02:28:14;100157.06;;;8.11;97.46
85511;BME280;75921;51.616;11.880;2024-02-15T02:30:41;100151.47;;;8.04;96.97
85511;BME280;75921;51.616;11.880;2024-02-15T02:33:10;100155.34;;;8.10;97.55
85511;BME280;75921;51.616;11.880;2024-02-15T02:35:36;100149.13;;;8.09;97.97
85511;BME280;75921;51.616;11.880;2024-02-15T02:38:03;100158.56;;;8.13;98.45
85511;BME280;75921;51.616;11.880;2024-02-15T02:40:28;100159.91;;;8.09;97.61
85511;BME280;75921;51.616;11.880;2024-02-15T02:42:54;100162.06;;;8.06;97.80
85511;BME280;75921;51.616;11.880;2024-02-15T02:45:22;100165.94;;;8.11;98.22
85511;BME280;75921;51.616;11.880;2024-02-15T02:47:48;100154.66;;;8.00;97.68
85511;BME280;75921;51.616;11.880;2024-02-15T02:50:14;100158.69;;;7.96;97.42
85511;BME280;75921;51.616;11.880;2024-02-15T02:52:39;100158.00;;;8.02;98.15
85511;BME280;75921;51.616;11.880;2024-02-15T02:55:05;100166.91;;;8.02;98.39
85511;BME280;75921;51.616;11.880;2024-02-15T02:57:38;100174.00;;;8.03;98.59
85511;BME280;75921;51.616;11.880;2024-02-15T03:00:10;100166.25;;;8.00;98.23
85511;BME280;75921;51.616;11.880;2024-02-15T03:02:38;100152.59;;;7.86;97.71
85511;BME280;75921;51.616;11.880;2024-02-15T03:05:04;100165.72;;;7.97;98.31
85511;BME280;75921;51.616;11.880;2024-02-15T03:07:32;100171.78;;;7.91;98.38
85511;BME280;75921;51.616;11.880;2024-02-15T03:09:58;100169.22;;;7.89;98.12
85511;BME280;75921;51.616;11.880;2024-02-15T03:12:23;100165.03;;;7.87;98.13
85511;BME280;75921;51.616;11.880;2024-02-15T03:14:48;100166.53;;;7.89;98.48
85511;BME280;75921;51.616;11.880;2024-02-15T03:17:13;100163.50;;;7.92;97.61
85511;BME280;75921;51.616;11.880;2024-02-15T03:19:38;100154.78;;;7.90;98.27
85511;BME280;75921;51.616;11.880;2024-02-15T03:22:04;100156.41;;;7.83;96.87
85511;BME280;75921;51.616;11.880;2024-02-15T03:24:29;100170.72;;;7.92;97.89
85511;BME280;75921;51.616;11.880;2024-02-15T03:26:54;100156.78;;;7.88;97.67
85511;BME280;75921;51.616;11.880;2024-02-15T03:29:20;100154.28;;;7.87;97.68
85511;BME280;75921;51.616;11.880;2024-02-15T03:31:46;100163.00;;;7.89;97.72
85511;BME280;75921;51.616;11.880;2024-02-15T03:34:12;100168.53;;;7.87;97.57
85511;BME280;75921;51.616;11.880;2024-02-15T03:36:39;100169.75;;;7.93;97.93
85511;BME280;75921;51.616;11.880;2024-02-15T03:39:04;100141.78;;;7.77;98.03
85511;BME280;75921;51.616;11.880;2024-02-15T03:41:31;100169.56;;;7.86;97.08
85511;BME280;75921;51.616;11.880;2024-02-15T03:43:57;100169.75;;;7.93;97.61
85511;BME280;75921;51.616;11.880;2024-02-15T03:46:24;100165.53;;;7.90;97.70
85511;BME280;75921;51.616;11.880;2024-02-15T03:48:49;100176.09;;;7.83;96.54
85511;BME280;75921;51.616;11.880;2024-02-15T03:51:18;100172.06;;;7.88;96.98
85511;BME280;75921;51.616;11.880;2024-02-15T03:53:48;100178.00;;;7.91;97.39
85511;BME280;75921;51.616;11.880;2024-02-15T03:56:13;100174.94;;;7.86;96.87
85511;BME280;75921;51.616;11.880;2024-02-15T03:58:39;100180.50;;;7.93;97.40
85511;BME280;75921;51.616;11.880;2024-02-15T04:01:04;100169.91;;;7.91;97.04
85511;BME280;75921;51.616;11.880;2024-02-15T04:03:32;100168.88;;;7.84;95.98
85511;BME280;75921;51.616;11.880;2024-02-15T04:05:57;100170.06;;;7.90;96.80
85511;BME280;75921;51.616;11.880;2024-02-15T04:08:23;100160.16;;;7.90;97.11
85511;BME280;75921;51.616;11.880;2024-02-15T04:10:48;100158.97;;;7.84;96.12
85511;BME280;75921;51.616;11.880;2024-02-15T04:13:13;100165.50;;;7.82;96.27
85511;BME280;75921;51.616;11.880;2024-02-15T04:15:39;100169.56;;;7.86;96.36
85511;BME280;75921;51.616;11.880;2024-02-15T04:18:04;100164.84;;;7.88;97.23
85511;BME280;75921;51.616;11.880;2024-02-15T04:20:29;100176.94;;;7.84;96.04
85511;BME280;75921;51.616;11.880;2024-02-15T04:22:55;100164.19;;;7.86;96.43
85511;BME280;75921;51.616;11.880;2024-02-15T04:25:21;100165.91;;;7.95;97.77
85511;BME280;75921;51.616;11.880;2024-02-15T04:27:52;100171.06;;;7.89;96.97
85511;BME280;75921;51.616;11.880;2024-02-15T04:30:18;100157.75;;;7.79;96.96
85511;BME280;75921;51.616;11.880;2024-02-15T04:32:44;100167.22;;;7.91;97.23
85511;BME280;75921;51.616;11.880;2024-02-15T04:35:09;100161.66;;;7.93;97.41
85511;BME280;75921;51.616;11.880;2024-02-15T04:37:35;100166.06;;;7.94;97.76
85511;BME280;75921;51.616;11.880;2024-02-15T04:40:02;100170.59;;;7.93;97.54
85511;BME280;75921;51.616;11.880;2024-02-15T04:42:35;100168.91;;;7.92;97.54
85511;BME280;75921;51.616;11.880;2024-02-15T04:45:02;100167.94;;;8.01;97.81
85511;BME280;75921;51.616;11.880;2024-02-15T04:47:28;100166.25;;;8.00;97.84
85511;BME280;75921;51.616;11.880;2024-02-15T04:49:55;100178.38;;;8.04;97.84
85511;BME280;75921;51.616;11.880;2024-02-15T04:52:20;100172.66;;;8.07;97.50
85511;BME280;75921;51.616;11.880;2024-02-15T04:54:48;100167.94;;;8.01;97.87
85511;BME280;75921;51.616;11.880;2024-02-15T04:57:14;100177.38;;;8.05;97.66
85511;BME280;75921;51.616;11.880;2024-02-15T04:59:39;100184.78;;;8.11;97.89
85511;BME280;75921;51.616;11.880;2024-02-15T05:02:04;100178.88;;;8.08;97.53
85511;BME280;75921;51.616;11.880;2024-02-15T05:04:29;100192.47;;;8.06;97.07
85511;BME280;75921;51.616;11.880;2024-02-15T05:06:55;100179.72;;;8.08;97.85
85511;BME280;75921;51.616;11.880;2024-02-15T05:09:21;100189.84;;;8.14;97.71
85511;BME280;75921;51.616;11.880;2024-02-15T05:11:47;100199.25;;;8.10;97.58
85511;BME280;75921;51.616;11.880;2024-02-15T05:14:16;100191.66;;;8.06;97.21
85511;BME280;75921;51.616;11.880;2024-02-15T05:16:46;100194.59;;;8.20;98.08
85511;BME280;75921;51.616;11.880;2024-02-15T05:19:13;100194.53;;;8.12;97.90
85511;BME280;75921;51.616;11.880;2024-02-15T05:21:38;100195.22;;;8.14;98.11
85511;BME280;75921;51.616;11.880;2024-02-15T05:24:06;100189.13;;;8.04;97.63
85511;BME280;75921;51.616;11.880;2024-02-15T05:26:32;100194.50;;;8.04;97.77
85511;BME280;75921;51.616;11.880;2024-02-15T05:28:57;100202.44;;;8.06;97.75
85511;BME280;75921;51.616;11.880;2024-02-15T05:31:23;100195.03;;;8.08;98.14
85511;BME280;75921;51.616;11.880;2024-02-15T05:33:51;100200.75;;;8.05;97.86
85511;BME280;75921;51.616;11.880;2024-02-15T05:36:18;100183.75;;;8.04;97.54
85511;BME280;75921;51.616;11.880;2024-02-15T05:38:47;100182.75;;;8.05;98.11
85511;BME280;75921;51.616;11.880;2024-02-15T05:41:13;100182.41;;;8.08;97.72
85511;BME280;75921;51.616;11.880;2024-02-15T05:43:39;100183.94;;;8.11;98.19
85511;BME280;75921;51.616;11.880;2024-02-15T05:46:05;100189.13;;;8.04;98.25
85511;BME280;75921;51.616;11.880;2024-02-15T05:48:31;100190.81;;;8.05;98.45
85511;BME280;75921;51.616;11.880;2024-02-15T05:51:00;100184.25;;;8.00;98.36
85511;BME280;75921;51.616;11.880;2024-02-15T05:53:25;100181.25;;;8.11;98.32
85511;BME280;75921;51.616;11.880;2024-02-15T05:55:51;100186.78;;;8.09;97.97
85511;BME280;75921;51.616;11.880;2024-02-15T05:58:16;100186.47;;;8.12;98.19
85511;BME280;75921;51.616;11.880;2024-02-15T06:00:42;100189.19;;;8.20;98.26
85511;BME280;75921;51.616;11.880;2024-02-15T06:03:08;100180.78;;;8.15;97.72
85511;BME280;75921;51.616;11.880;2024-02-15T06:05:34;100184.47;;;8.22;97.92
85511;BME280;75921;51.616;11.880;2024-02-15T06:08:00;100189.09;;;8.30;97.95
85511;BME280;75921;51.616;11.880;2024-02-15T06:10:25;100190.56;;;8.24;97.49
85511;BME280;75921;51.616;11.880;2024-02-15T06:12:51;100183.28;;;8.17;97.92
85511;BME280;75921;51.616;11.880;2024-02-15T06:15:16;100179.59;;;8.18;97.72
85511;BME280;75921;51.616;11.880;2024-02-15T06:17:42;100190.00;;;8.21;98.03
85511;BME280;75921;51.616;11.880;2024-02-15T06:20:12;100192.88;;;8.19;98.29
85511;BME280;75921;51.616;11.880;2024-02-15T06:22:38;100193.88;;;8.18;98.27
85511;BME280;75921;51.616;11.880;2024-02-15T06:25:04;100187.47;;;8.11;97.74
85511;BME280;75921;51.616;11.880;2024-02-15T06:27:30;100176.34;;;8.06;97.77
85511;BME280;75921;51.616;11.880;2024-02-15T06:29:56;100179.72;;;8.08;97.62
85511;BME280;75921;51.616;11.880;2024-02-15T06:32:40;100199.28;;;8.26;98.12
85511;BME280;75921;51.616;11.880;2024-02-15T06:35:24;100205.00;;;8.15;97.11
85511;BME280;75921;51.616;11.880;2024-02-15T06:38:08;100211.22;;;8.16;97.57
85511;BME280;75921;51.616;11.880;2024-02-15T06:40:52;100211.75;;;8.27;97.77
85511;BME280;75921;51.616;11.880;2024-02-15T06:43:19;100212.06;;;8.24;97.71
85511;BME280;75921;51.616;11.880;2024-02-15T06:45:44;100210.38;;;8.23;97.68
85511;BME280;75921;51.616;11.880;2024-02-15T06:48:12;100206.34;;;8.27;97.63
85511;BME280;75921;51.616;11.880;2024-02-15T06:50:37;100209.53;;;8.23;97.33
85511;BME280;75921;51.616;11.880;2024-02-15T06:53:03;100205.50;;;8.19;96.68
85511;BME280;75921;51.616;11.880;2024-02-15T06:55:28;100215.53;;;8.43;97.71
85511;BME280;75921;51.616;11.880;2024-02-15T06:57:53;100207.25;;;8.36;97.29
85511;BME280;75921;51.616;11.880;2024-02-15T07:00:20;100217.53;;;8.41;97.46
85511;BME280;75921;51.616;11.880;2024-02-15T07:02:45;100220.75;;;8.44;97.75
85511;BME280;75921;51.616;11.880;2024-02-15T07:05:10;100225.59;;;8.41;97.19
85511;BME280;75921;51.616;11.880;2024-02-15T07:07:36;100220.56;;;8.46;97.75
85511;BME280;75921;51.616;11.880;2024-02-15T07:10:01;100221.06;;;8.33;96.63
85511;BME280;75921;51.616;11.880;2024-02-15T07:12:28;100198.88;;;8.39;97.35
85511;BME280;75921;51.616;11.880;2024-02-15T07:14:53;100214.69;;;8.50;97.46
85511;BME280;75921;51.616;11.880;2024-02-15T07:17:20;100222.97;;;8.57;97.48
85511;BME280;75921;51.616;11.880;2024-02-15T07:19:45;100218.09;;;8.60;97.40
85511;BME280;75921;51.616;11.880;2024-02-15T07:22:14;100215.72;;;8.65;97.31
85511;BME280;75921;51.616;11.880;2024-02-15T07:24:39;100216.44;;;8.67;97.37
85511;BME280;75921;51.616;11.880;2024-02-15T07:27:05;100219.13;;;8.67;97.37
85511;BME280;75921;51.616;11.880;2024-02-15T07:29:30;100209.53;;;8.73;97.63
85511;BME280;75921;51.616;11.880;2024-02-15T07:32:01;100224.34;;;8.85;97.15
85511;BME280;75921;51.616;11.880;2024-02-15T07:34:30;100224.34;;;8.77;96.71
85511;BME280;75921;51.616;11.880;2024-02-15T07:36:56;100221.50;;;8.79;97.24
85511;BME280;75921;51.616;11.880;2024-02-15T07:39:23;100222.84;;;8.83;97.10
85511;BME280;75921;51.616;11.880;2024-02-15T07:41:55;100222.66;;;8.76;97.27
85511;BME280;75921;51.616;11.880;2024-02-15T07:44:21;100220.31;;;8.81;97.61
85511;BME280;75921;51.616;11.880;2024-02-15T07:46:47;100233.97;;;8.88;97.15
85511;BME280;75921;51.616;11.880;2024-02-15T07:49:12;100214.94;;;8.81;97.27
85511;BME280;75921;51.616;11.880;2024-02-15T07:51:37;100222.69;;;8.84;97.26
85511;BME280;75921;51.616;11.880;2024-02-15T07:54:03;100225.88;;;8.96;96.29
85511;BME280;75921;51.616;11.880;2024-02-15T07:56:29;100224.38;;;9.01;97.01
85511;BME280;75921;51.616;11.880;2024-02-15T07:58:55;100226.72;;;9.04;96.47
85511;BME280;75921;51.616;11.880;2024-02-15T08:01:20;100234.50;;;9.07;96.94
85511;BME280;75921;51.616;11.880;2024-02-15T08:03:46;100228.09;;;9.17;96.35
85511;BME280;75921;51.616;11.880;2024-02-15T08:06:11;100237.03;;;9.17;96.51
85511;BME280;75921;51.616;11.880;2024-02-15T08:08:38;100231.47;;;9.19;96.66
85511;BME280;75921;51.616;11.880;2024-02-15T08:11:04;100220.34;;;9.13;96.46
85511;BME280;75921;51.616;11.880;2024-02-15T08:13:29;100235.84;;;9.28;96.42
85511;BME280;75921;51.616;11.880;2024-02-15T08:15:55;100236.19;;;9.33;95.94
85511;BME280;75921;51.616;11.880;2024-02-15T08:18:21;100235.16;;;9.26;95.67
85511;BME280;75921;51.616;11.880;2024-02-15T08:20:46;100224.88;;;9.29;95.78
85511;BME280;75921;51.616;11.880;2024-02-15T08:23:11;100225.72;;;9.30;96.15
85511;BME280;75921;51.616;11.880;2024-02-15T08:25:39;100225.06;;;9.28;95.69
85511;BME280;75921;51.616;11.880;2024-02-15T08:28:06;100215.63;;;9.32;95.96
85511;BME280;75921;51.616;11.880;2024-02-15T08:30:32;100219.66;;;9.36;96.39
85511;BME280;75921;51.616;11.880;2024-02-15T08:32:58;100220.16;;;9.39;95.51
85511;BME280;75921;51.616;11.880;2024-02-15T08:35:23;100224.53;;;9.48;95.60
85511;BME280;75921;51.616;11.880;2024-02-15T08:37:48;100217.59;;;9.54;95.32
85511;BME280;75921;51.616;11.880;2024-02-15T08:40:16;100208.19;;;9.42;96.27
85511;BME280;75921;51.616;11.880;2024-02-15T08:42:44;100215.59;;;9.56;95.88
85511;BME280;75921;51.616;11.880;2024-02-15T08:45:11;100211.91;;;9.41;95.77
85511;BME280;75921;51.616;11.880;2024-02-15T08:47:38;100214.09;;;9.45;94.58
85511;BME280;75921;51.616;11.880;2024-02-15T08:50:04;100204.47;;;9.67;94.70
85511;BME280;75921;51.616;11.880;2024-02-15T08:52:30;100203.94;;;9.64;95.37
85511;BME280;75921;51.616;11.880;2024-02-15T08:54:55;100218.25;;;9.64;95.55
85511;BME280;75921;51.616;11.880;2024-02-15T08:57:22;100220.59;;;9.75;95.58
85511;BME280;75921;51.616;11.880;2024-02-15T08:59:47;100222.31;;;9.76;95.33
85511;BME280;75921;51.616;11.880;2024-02-15T09:02:13;100213.56;;;9.66;95.70
85511;BME280;75921;51.616;11.880;2024-02-15T09:04:39;100227.47;;;9.94;95.56
85511;BME280;75921;51.616;11.880;2024-02-15T09:07:06;100221.59;;;9.90;95.06
85511;BME280;75921;51.616;11.880;2024-02-15T09:09:32;100220.50;;;10.08;94.66
85511;BME280;75921;51.616;11.880;2024-02-15T09:12:01;100215.28;;;10.06;94.35
85511;BME280;75921;51.616;11.880;2024-02-15T09:14:26;100207.72;;;9.93;94.75
85511;BME280;75921;51.616;11.880;2024-02-15T09:16:51;100215.13;;;10.16;93.54
85511;BME280;75921;51.616;11.880;2024-02-15T09:19:16;100226.22;;;10.13;93.43
85511;BME280;75921;51.616;11.880;2024-02-15T09:21:42;100219.78;;;10.22;92.73
85511;BME280;75921;51.616;11.880;2024-02-15T09:24:07;100221.50;;;10.15;93.57
85511;BME280;75921;51.616;11.880;2024-02-15T09:26:33;100218.78;;;10.23;93.11
85511;BME280;75921;51.616;11.880;2024-02-15T09:28:58;100220.53;;;9.99;94.32
85511;BME280;75921;51.616;11.880;2024-02-15T09:31:23;100223.53;;;10.21;93.24
85511;BME280;75921;51.616;11.880;2024-02-15T09:33:50;100223.19;;;10.24;92.67
85511;BME280;75921;51.616;11.880;2024-02-15T09:36:15;100220.31;;;10.25;93.18
85511;BME280;75921;51.616;11.880;2024-02-15T09:38:41;100224.88;;;10.17;93.50
85511;BME280;75921;51.616;11.880;2024-02-15T09:41:06;100226.41;;;10.19;92.76
85511;BME280;75921;51.616;11.880;2024-02-15T09:43:34;100222.00;;;10.18;94.18
85511;BME280;75921;51.616;11.880;2024-02-15T09:45:59;100225.91;;;10.16;93.50
85511;BME280;75921;51.616;11.880;2024-02-15T09:48:29;100223.22;;;10.16;92.91
85511;BME280;75921;51.616;11.880;2024-02-15T09:50:56;100233.28;;;10.30;93.13
85511;BME280;75921;51.616;11.880;2024-02-15T09:53:22;100229.09;;;10.19;93.56
85511;BME280;75921;51.616;11.880;2024-02-15T09:55:52;100226.94;;;10.07;91.24
85511;BME280;75921;51.616;11.880;2024-02-15T09:58:19;100238.34;;;10.25;93.79
85511;BME280;75921;51.616;11.880;2024-02-15T10:00:44;100226.81;;;10.39;93.79
85511;BME280;75921;51.616;11.880;2024-02-15T10:03:14;100232.16;;;10.47;93.45
85511;BME280;75921;51.616;11.880;2024-02-15T10:05:41;100236.72;;;10.47;94.28
85511;BME280;75921;51.616;11.880;2024-02-15T10:08:06;100238.47;;;10.31;92.55
85511;BME280;75921;51.616;11.880;2024-02-15T10:10:32;100231.53;;;10.45;92.60
85511;BME280;75921;51.616;11.880;2024-02-15T10:12:58;100224.34;;;10.29;91.04
85511;BME280;75921;51.616;11.880;2024-02-15T10:15:31;100237.41;;;10.49;93.70
85511;BME280;75921;51.616;11.880;2024-02-15T10:17:58;100236.16;;;10.59;92.32
85511;BME280;75921;51.616;11.880;2024-02-15T10:20:24;100234.31;;;10.60;91.22
85511;BME280;75921;51.616;11.880;2024-02-15T10:23:13;100237.84;;;10.60;92.74
85511;BME280;75921;51.616;11.880;2024-02-15T10:25:42;100235.09;;;10.68;92.63
85511;BME280;75921;51.616;11.880;2024-02-15T10:28:09;100239.66;;;10.68;92.32
85511;BME280;75921;51.616;11.880;2024-02-15T10:30:42;100230.72;;;10.67;91.41
85511;BME280;75921;51.616;11.880;2024-02-15T10:33:18;100225.16;;;10.61;92.30
85511;BME280;75921;51.616;11.880;2024-02-15T10:35:45;100230.09;;;10.57;93.10
85511;BME280;75921;51.616;11.880;2024-02-15T10:38:11;100219.91;;;10.67;91.70
85511;BME280;75921;51.616;11.880;2024-02-15T10:40:37;100209.00;;;10.53;91.03
85511;BME280;75921;51.616;11.880;2024-02-15T10:43:04;100222.28;;;10.62;91.96
85511;BME280;75921;51.616;11.880;2024-02-15T10:45:31;100204.94;;;10.57;91.58
85511;BME280;75921;51.616;11.880;2024-02-15T10:47:57;100215.00;;;10.40;91.39
85511;BME280;75921;51.616;11.880;2024-02-15T10:50:25;100208.22;;;10.44;91.82
85511;BME280;75921;51.616;11.880;2024-02-15T10:52:58;100206.38;;;10.45;91.64
85511;BME280;75921;51.616;11.880;2024-02-15T10:55:38;100201.81;;;10.45;91.61
85511;BME280;75921;51.616;11.880;2024-02-15T10:58:06;100207.31;;;10.52;91.52
85511;BME280;75921;51.616;11.880;2024-02-15T11:00:33;100196.75;;;10.73;91.75
85511;BME280;75921;51.616;11.880;2024-02-15T11:03:03;100202.81;;;10.75;92.01
85511;BME280;75921;51.616;11.880;2024-02-15T11:05:35;100177.97;;;10.79;89.84
85511;BME280;75921;51.616;11.880;2024-02-15T11:08:04;100192.81;;;10.75;91.58
85511;BME280;75921;51.616;11.880;2024-02-15T11:10:30;100182.81;;;10.84;91.70
85511;BME280;75921;51.616;11.880;2024-02-15T11:12:56;100180.03;;;10.92;91.10
85511;BME280;75921;51.616;11.880;2024-02-15T11:18:02;100177.72;;;10.89;91.42
85511;BME280;75921;51.616;11.880;2024-02-15T11:22:58;100177.56;;;11.05;90.52
85511;BME280;75921;51.616;11.880;2024-02-15T11:25:37;100184.97;;;10.89;89.89
85511;BME280;75921;51.616;11.880;2024-02-15T11:30:53;100162.91;;;11.00;91.98
85511;BME280;75921;51.616;11.880;2024-02-15T11:33:32;100181.34;;;11.19;91.39
85511;BME280;75921;51.616;11.880;2024-02-15T11:36:13;100173.00;;;11.06;91.88
85511;BME280;75921;51.616;11.880;2024-02-15T11:38:39;100160.53;;;10.82;90.26
85511;BME280;75921;51.616;11.880;2024-02-15T11:41:07;100161.84;;;10.86;91.03
85511;BME280;75921;51.616;11.880;2024-02-15T11:46:08;100163.03;;;11.06;91.52
85511;BME280;75921;51.616;11.880;2024-02-15T11:48:36;100155.69;;;11.15;90.97
85511;BME280;75921;51.616;11.880;2024-02-15T11:51:04;100158.66;;;11.05;90.50
85511;BME280;75921;51.616;11.880;2024-02-15T11:53:31;100150.78;;;11.18;89.77
85511;BME280;75921;51.616;11.880;2024-02-15T11:56:00;100161.25;;;11.36;90.10
85511;BME280;75921;51.616;11.880;2024-02-15T11:58:26;100157.41;;;11.45;89.78
85511;BME280;75921;51.616;11.880;2024-02-15T12:01:08;100156.56;;;11.30;89.88
85511;BME280;75921;51.616;11.880;2024-02-15T12:03:54;100154.72;;;11.45;89.44
85511;BME280;75921;51.616;11.880;2024-02-15T12:06:38;100159.50;;;11.43;89.31
85511;BME280;75921;51.616;11.880;2024-02-15T12:09:22;100150.81;;;11.48;89.17
85511;BME280;75921;51.616;11.880;2024-02-15T12:12:06;100147.34;;;11.39;89.21
85511;BME280;75921;51.616;11.880;2024-02-15T12:14:59;100142.41;;;11.28;89.46
85511;BME280;75921;51.616;11.880;2024-02-15T12:17:43;100138.84;;;11.27;89.50
85511;BME280;75921;51.616;11.880;2024-02-15T12:20:27;100137.25;;;11.18;89.54
85511;BME280;75921;51.616;11.880;2024-02-15T12:22:53;100141.44;;;11.21;88.84
85511;BME280;75921;51.616;11.880;2024-02-15T12:25:19;100126.72;;;11.23;88.97
85511;BME280;75921;51.616;11.880;2024-02-15T12:27:52;100127.47;;;11.17;90.02
85511;BME280;75921;51.616;11.880;2024-02-15T12:30:18;100136.78;;;11.29;89.68
85511;BME280;75921;51.616;11.880;2024-02-15T12:32:51;100127.47;;;11.17;90.19
85511;BME280;75921;51.616;11.880;2024-02-15T12:35:19;100126.50;;;11.10;89.33
85511;BME280;75921;51.616;11.880;2024-02-15T12:40:33;100140.56;;;11.43;88.86
85511;BME280;75921;51.616;11.880;2024-02-15T12:42:59;100137.19;;;11.41;89.58
85511;BME280;75921;51.616;11.880;2024-02-15T12:45:30;100120.84;;;11.35;89.03
85511;BME280;75921;51.616;11.880;2024-02-15T12:47:56;100122.34;;;11.37;88.92
85511;BME280;75921;51.616;11.880;2024-02-15T12:50:23;100129.94;;;11.71;88.81
85511;BME280;75921;51.616;11.880;2024-02-15T12:52:53;100118.31;;;12.21;86.99
85511;BME280;75921;51.616;11.880;2024-02-15T12:55:22;100119.97;;;12.22;86.34
85511;BME280;75921;51.616;11.880;2024-02-15T12:57:54;100120.38;;;12.19;86.34
85511;BME280;75921;51.616;11.880;2024-02-15T13:00:26;100116.72;;;12.12;86.66
85511;BME280;75921;51.616;11.880;2024-02-15T13:02:55;100116.94;;;12.89;84.77